Impacts METAR Board
IDs:

KDEN - Denver Intl, CO, US

Updated at: 0100 UTC 31 May 2020
Potential Impact None Slight Moderate High
Time 30/13Z 30/14Z 30/15Z 30/16Z 30/17Z 30/18Z 30/19Z 30/20Z 30/21Z 30/22Z 30/23Z 31/00Z 31/01Z
Temp60 66 71 74 78 80 79 82 82 80 78 76 76
Dewpt52 53 53 53 53 54 52 53 50 51 54 52 54
Altim30.19 30.20 30.21 30.21 30.21 30.20 30.20 30.18 30.16 30.15 30.15 30.14 30.14
VIS10 10 10 10 10 10 10 10 10 10 10 10 10
CIG-- -- -- -- -- -- -- -- -- 220 200 200 80
CoverFEWFEWFEWFEWFEWSCTSCTSCTSCTBKNBKNBKNBKN
FltCatVFRVFRVFRVFRVFRVFRVFRVFRVFRVFRVFRVFRVFR
WX--------------------------
WDir2502502903302040508080100120100100
WSpd10 9 7 6 7 11 10 13 7 9 9 11 6
WGst-- -- -- -- -- 18 18 -- 14 -- -- -- --
Raw hourly METARs
KDEN 301253Z 25010KT 10SM FEW180 FEW220 16/11 A3019 RMK AO2 SLP153 T01560111
KDEN 301353Z 25009KT 10SM FEW130 FEW220 19/12 A3020 RMK AO2 SLP151 T01890117
KDEN 301453Z 29007KT 10SM FEW130 FEW220 22/12 A3021 RMK AO2 SLP152 T02170117 52010
KDEN 301553Z 33006KT 10SM FEW080 FEW130 FEW220 23/12 A3021 RMK AO2 SLP152 T02330117
KDEN 301653Z 02007KT 10SM FEW080 FEW130 FEW220 26/12 A3021 RMK AO2 SLP150 VIRGA DSNT SW-W TCU DSNT SW-W T02560117
KDEN 301753Z 04011G18KT 10SM FEW080 FEW120 SCT220 27/12 A3020 RMK AO2 SLP141 VIRGA DSNT SW-W T02670122 10267 20139 58002
KDEN 301853Z 05010G18KT 030V090 10SM FEW080 FEW130 SCT220 26/11 A3020 RMK AO2 SLP145 CB DSNT SW MOV SE T02610111
KDEN 301953Z 08013KT 10SM FEW080 FEW140 SCT220 28/12 A3018 RMK AO2 SLP136 CB DSNT SW-W MOV SE T02780117
KDEN 302053Z 08007G14KT 10SM FEW080 FEW140 SCT220 28/10 A3016 RMK AO2 SLP128 TCU DSNT SW-W T02780100 58014
KDEN 302153Z 10009KT 10SM FEW080 SCT140 BKN220 27/11 A3015 RMK AO2 SLP129 T02670106
KDEN 302253Z 12009KT 10SM FEW080 SCT140 BKN200 26/12 A3015 RMK AO2 SLP138 T02560122
KDEN 302353Z 10011KT 10SM FEW080 SCT140 BKN200 24/11 A3014 RMK AO2 SLP136 T02440111 10283 20244 58005
KDEN 310053Z 10006KT 10SM BKN080 BKN140 BKN220 24/12 A3014 RMK AO2 SLP136 T02440122



Page loaded:  01:48 UTC  |   06:48 PM Pacific  |   07:48 PM Mountain  |   08:48 PM Central  |   09:48 PM Eastern

 

ADVISORIES

FORECASTS

FORECASTS

OBSERVATIONS

USER TOOLS

ABOUT US